sensor_id;sensor_type;location;lat;lon;timestamp;P1;P2;P0
72307;PMS5003;60257;42.638;23.376;2023-02-28T00:01:09;51.00;42.00;23.75
72307;PMS5003;60257;42.638;23.376;2023-02-28T00:03:36;36.00;32.50;22.00
72307;PMS5003;60257;42.638;23.376;2023-02-28T00:06:02;45.33;36.33;19.00
72307;PMS5003;60257;42.638;23.376;2023-02-28T00:08:29;36.33;34.33;15.33
72307;PMS5003;60257;42.638;23.376;2023-02-28T00:10:54;42.67;40.00;24.67
72307;PMS5003;60257;42.638;23.376;2023-02-28T00:13:20;44.67;39.67;24.33
72307;PMS5003;60257;42.638;23.376;2023-02-28T00:15:46;46.50;42.00;23.25
72307;PMS5003;60257;42.638;23.376;2023-02-28T00:18:11;48.33;38.33;21.00
72307;PMS5003;60257;42.638;23.376;2023-02-28T00:20:37;40.67;37.33;21.00
72307;PMS5003;60257;42.638;23.376;2023-02-28T00:23:02;37.00;33.33;20.00
72307;PMS5003;60257;42.638;23.376;2023-02-28T00:25:28;42.67;36.00;16.33
72307;PMS5003;60257;42.638;23.376;2023-02-28T00:27:53;40.33;38.00;20.33
72307;PMS5003;60257;42.638;23.376;2023-02-28T00:30:20;38.00;36.00;21.67
72307;PMS5003;60257;42.638;23.376;2023-02-28T00:32:47;41.00;38.33;21.33
72307;PMS5003;60257;42.638;23.376;2023-02-28T00:35:13;35.67;34.00;17.00
72307;PMS5003;60257;42.638;23.376;2023-02-28T00:37:39;32.67;30.67;16.00
72307;PMS5003;60257;42.638;23.376;2023-02-28T00:40:05;41.00;34.33;18.00
72307;PMS5003;60257;42.638;23.376;2023-02-28T00:42:32;36.00;33.00;19.33
72307;PMS5003;60257;42.638;23.376;2023-02-28T00:44:58;41.67;38.33;21.00
72307;PMS5003;60257;42.638;23.376;2023-02-28T00:47:23;43.33;39.33;23.00
72307;PMS5003;60257;42.638;23.376;2023-02-28T00:49:49;30.33;30.00;18.00
72307;PMS5003;60257;42.638;23.376;2023-02-28T00:52:14;51.00;42.00;25.50
72307;PMS5003;60257;42.638;23.376;2023-02-28T00:54:40;46.50;42.25;24.00
72307;PMS5003;60257;42.638;23.376;2023-02-28T00:57:05;46.50;40.50;23.50
72307;PMS5003;60257;42.638;23.376;2023-02-28T00:59:31;47.25;42.25;20.75
72307;PMS5003;60257;42.638;23.376;2023-02-28T01:01:56;48.00;37.67;19.33
72307;PMS5003;60257;42.638;23.376;2023-02-28T01:04:22;47.50;37.00;22.75
72307;PMS5003;60257;42.638;23.376;2023-02-28T01:06:47;48.75;42.00;23.25
72307;PMS5003;60257;42.638;23.376;2023-02-28T01:09:13;45.33;39.33;23.00
72307;PMS5003;60257;42.638;23.376;2023-02-28T01:11:39;46.75;40.00;25.50
72307;PMS5003;60257;42.638;23.376;2023-02-28T01:14:06;49.25;43.50;25.00
72307;PMS5003;60257;42.638;23.376;2023-02-28T01:16:32;44.67;39.33;24.67
72307;PMS5003;60257;42.638;23.376;2023-02-28T01:18:57;38.75;37.00;23.25
72307;PMS5003;60257;42.638;23.376;2023-02-28T01:21:23;38.25;37.50;19.25
72307;PMS5003;60257;42.638;23.376;2023-02-28T01:23:48;44.33;41.00;21.67
72307;PMS5003;60257;42.638;23.376;2023-02-28T01:26:21;52.75;42.25;25.25
72307;PMS5003;60257;42.638;23.376;2023-02-28T01:28:48;37.00;32.00;15.00
72307;PMS5003;60257;42.638;23.376;2023-02-28T01:31:15;54.50;43.50;28.00
72307;PMS5003;60257;42.638;23.376;2023-02-28T01:33:41;50.33;41.33;24.00
72307;PMS5003;60257;42.638;23.376;2023-02-28T01:36:13;39.25;33.25;19.50
72307;PMS5003;60257;42.638;23.376;2023-02-28T01:38:41;47.75;42.00;25.00
72307;PMS5003;60257;42.638;23.376;2023-02-28T01:41:07;45.25;39.75;21.50
72307;PMS5003;60257;42.638;23.376;2023-02-28T01:46:08;53.75;44.00;25.00
72307;PMS5003;60257;42.638;23.376;2023-02-28T01:48:36;61.50;47.75;26.75
72307;PMS5003;60257;42.638;23.376;2023-02-28T01:51:09;51.50;45.25;25.00
72307;PMS5003;60257;42.638;23.376;2023-02-28T01:53:42;52.00;43.75;25.25
72307;PMS5003;60257;42.638;23.376;2023-02-28T01:56:13;59.00;45.50;26.00
72307;PMS5003;60257;42.638;23.376;2023-02-28T01:58:48;54.25;45.00;27.00
72307;PMS5003;60257;42.638;23.376;2023-02-28T02:01:17;49.00;41.75;21.25
72307;PMS5003;60257;42.638;23.376;2023-02-28T02:03:48;56.75;45.75;25.00
72307;PMS5003;60257;42.638;23.376;2023-02-28T02:06:20;48.00;42.50;22.75
72307;PMS5003;60257;42.638;23.376;2023-02-28T02:08:59;43.67;42.00;25.00
72307;PMS5003;60257;42.638;23.376;2023-02-28T02:11:24;60.50;47.00;24.00
72307;PMS5003;60257;42.638;23.376;2023-02-28T02:28:16;53.25;43.75;25.25
72307;PMS5003;60257;42.638;23.376;2023-02-28T02:33:39;54.75;42.75;22.75
72307;PMS5003;60257;42.638;23.376;2023-02-28T02:36:33;45.00;41.67;23.33
72307;PMS5003;60257;42.638;23.376;2023-02-28T02:41:51;47.00;41.50;22.50
72307;PMS5003;60257;42.638;23.376;2023-02-28T02:44:39;51.25;42.75;23.75
72307;PMS5003;60257;42.638;23.376;2023-02-28T02:47:12;46.25;39.25;18.75
72307;PMS5003;60257;42.638;23.376;2023-02-28T02:49:49;52.25;43.25;24.75
72307;PMS5003;60257;42.638;23.376;2023-02-28T02:52:22;57.00;45.50;25.25
72307;PMS5003;60257;42.638;23.376;2023-02-28T02:54:52;1.75;0.00;0.00
72307;PMS5003;60257;42.638;23.376;2023-02-28T02:58:04;25.50;21.75;0.25
72307;PMS5003;60257;42.638;23.376;2023-02-28T03:00:16;43.00;38.33;22.33
72307;PMS5003;60257;42.638;23.376;2023-02-28T03:02:45;50.75;42.75;23.25
72307;PMS5003;60257;42.638;23.376;2023-02-28T03:05:18;49.50;43.00;24.00
72307;PMS5003;60257;42.638;23.376;2023-02-28T03:07:48;38.50;35.75;18.25
72307;PMS5003;60257;42.638;23.376;2023-02-28T03:10:27;49.00;41.00;21.25
72307;PMS5003;60257;42.638;23.376;2023-02-28T03:13:32;48.00;42.67;23.00
72307;PMS5003;60257;42.638;23.376;2023-02-28T03:24:15;53.50;42.00;21.50
72307;PMS5003;60257;42.638;23.376;2023-02-28T03:26:58;47.00;42.50;25.00
72307;PMS5003;60257;42.638;23.376;2023-02-28T03:31:58;60.50;49.50;29.25
72307;PMS5003;60257;42.638;23.376;2023-02-28T03:34:31;58.50;45.75;27.50
72307;PMS5003;60257;42.638;23.376;2023-02-28T03:37:01;62.25;49.00;28.75
72307;PMS5003;60257;42.638;23.376;2023-02-28T03:39:37;59.00;49.00;27.00
72307;PMS5003;60257;42.638;23.376;2023-02-28T03:42:18;63.00;48.75;30.00
72307;PMS5003;60257;42.638;23.376;2023-02-28T03:44:57;61.50;50.25;28.00
72307;PMS5003;60257;42.638;23.376;2023-02-28T03:47:42;59.75;48.00;27.50
72307;PMS5003;60257;42.638;23.376;2023-02-28T03:55:48;56.50;44.75;22.75
72307;PMS5003;60257;42.638;23.376;2023-02-28T04:01:04;63.00;50.75;28.75
72307;PMS5003;60257;42.638;23.376;2023-02-28T04:03:37;67.00;53.00;29.25
72307;PMS5003;60257;42.638;23.376;2023-02-28T04:06:05;68.00;51.00;30.00
72307;PMS5003;60257;42.638;23.376;2023-02-28T04:08:37;62.75;48.00;29.75
72307;PMS5003;60257;42.638;23.376;2023-02-28T04:11:04;61.00;48.00;28.00
72307;PMS5003;60257;42.638;23.376;2023-02-28T04:13:37;64.25;52.25;30.50
72307;PMS5003;60257;42.638;23.376;2023-02-28T04:16:06;58.25;46.75;28.00
72307;PMS5003;60257;42.638;23.376;2023-02-28T04:18:37;54.00;45.25;25.00
72307;PMS5003;60257;42.638;23.376;2023-02-28T04:21:12;37.00;36.50;21.00
72307;PMS5003;60257;42.638;23.376;2023-02-28T04:23:37;53.00;43.75;26.50
72307;PMS5003;60257;42.638;23.376;2023-02-28T04:26:03;54.75;43.25;22.00
72307;PMS5003;60257;42.638;23.376;2023-02-28T04:28:29;61.25;49.00;26.00
72307;PMS5003;60257;42.638;23.376;2023-02-28T04:30:58;59.00;46.25;26.00
72307;PMS5003;60257;42.638;23.376;2023-02-28T04:33:26;51.50;41.50;28.25
72307;PMS5003;60257;42.638;23.376;2023-02-28T04:36:02;54.75;45.25;24.00
72307;PMS5003;60257;42.638;23.376;2023-02-28T04:38:29;52.75;43.25;21.75
72307;PMS5003;60257;42.638;23.376;2023-02-28T04:40:58;48.00;41.25;24.25
72307;PMS5003;60257;42.638;23.376;2023-02-28T04:43:25;43.50;40.75;23.75
72307;PMS5003;60257;42.638;23.376;2023-02-28T04:45:52;43.50;39.00;17.25
72307;PMS5003;60257;42.638;23.376;2023-02-28T04:48:21;53.75;44.50;23.50
72307;PMS5003;60257;42.638;23.376;2023-02-28T04:50:51;45.75;41.25;19.50
72307;PMS5003;60257;42.638;23.376;2023-02-28T04:53:17;54.75;44.75;25.25
72307;PMS5003;60257;42.638;23.376;2023-02-28T04:55:42;59.50;49.50;28.75
72307;PMS5003;60257;42.638;23.376;2023-02-28T04:58:08;57.00;44.50;18.00
72307;PMS5003;60257;42.638;23.376;2023-02-28T05:00:33;64.00;51.50;28.00
72307;PMS5003;60257;42.638;23.376;2023-02-28T05:02:59;77.00;60.50;33.00
72307;PMS5003;60257;42.638;23.376;2023-02-28T05:05:24;66.75;53.75;31.00
72307;PMS5003;60257;42.638;23.376;2023-02-28T05:07:50;59.50;46.25;29.25
72307;PMS5003;60257;42.638;23.376;2023-02-28T05:10:15;71.75;57.00;32.75
72307;PMS5003;60257;42.638;23.376;2023-02-28T05:12:41;67.00;52.50;29.00
72307;PMS5003;60257;42.638;23.376;2023-02-28T05:15:07;67.75;57.25;32.00
72307;PMS5003;60257;42.638;23.376;2023-02-28T05:17:37;68.25;52.25;29.50
72307;PMS5003;60257;42.638;23.376;2023-02-28T05:20:03;75.25;57.50;30.25
72307;PMS5003;60257;42.638;23.376;2023-02-28T05:22:30;67.75;53.25;28.50
72307;PMS5003;60257;42.638;23.376;2023-02-28T05:24:55;72.00;55.00;29.75
72307;PMS5003;60257;42.638;23.376;2023-02-28T05:27:21;70.75;56.00;30.50
72307;PMS5003;60257;42.638;23.376;2023-02-28T05:29:46;57.75;45.25;27.50
72307;PMS5003;60257;42.638;23.376;2023-02-28T05:32:12;67.50;52.25;28.75
72307;PMS5003;60257;42.638;23.376;2023-02-28T05:34:38;64.00;51.50;30.75
72307;PMS5003;60257;42.638;23.376;2023-02-28T05:37:04;66.75;49.50;28.00
72307;PMS5003;60257;42.638;23.376;2023-02-28T05:39:30;66.00;49.75;28.75
72307;PMS5003;60257;42.638;23.376;2023-02-28T05:41:56;66.75;50.50;29.00
72307;PMS5003;60257;42.638;23.376;2023-02-28T05:44:21;63.50;50.00;29.00
72307;PMS5003;60257;42.638;23.376;2023-02-28T05:46:47;61.75;49.25;28.00
72307;PMS5003;60257;42.638;23.376;2023-02-28T05:49:13;56.25;45.75;27.00
72307;PMS5003;60257;42.638;23.376;2023-02-28T05:51:38;60.25;51.25;29.00
72307;PMS5003;60257;42.638;23.376;2023-02-28T05:54:05;65.75;51.25;30.00
72307;PMS5003;60257;42.638;23.376;2023-02-28T05:56:31;62.75;49.00;29.00
72307;PMS5003;60257;42.638;23.376;2023-02-28T05:58:59;58.75;47.00;26.25
72307;PMS5003;60257;42.638;23.376;2023-02-28T06:04:01;42.25;37.25;24.00
72307;PMS5003;60257;42.638;23.376;2023-02-28T06:06:29;60.00;46.75;27.00
72307;PMS5003;60257;42.638;23.376;2023-02-28T06:08:54;54.75;46.00;26.00
72307;PMS5003;60257;42.638;23.376;2023-02-28T06:11:21;59.50;49.50;28.00
72307;PMS5003;60257;42.638;23.376;2023-02-28T06:13:46;58.25;47.50;28.50
72307;PMS5003;60257;42.638;23.376;2023-02-28T06:16:12;60.50;46.25;25.00
72307;PMS5003;60257;42.638;23.376;2023-02-28T06:18:38;58.75;47.50;26.25
72307;PMS5003;60257;42.638;23.376;2023-02-28T06:21:04;56.50;47.00;28.25
72307;PMS5003;60257;42.638;23.376;2023-02-28T06:23:30;59.75;49.25;29.00
72307;PMS5003;60257;42.638;23.376;2023-02-28T06:25:55;48.50;41.25;24.75
72307;PMS5003;60257;42.638;23.376;2023-02-28T06:28:24;57.00;47.50;26.25
72307;PMS5003;60257;42.638;23.376;2023-02-28T06:30:50;59.00;46.00;27.25
72307;PMS5003;60257;42.638;23.376;2023-02-28T06:33:16;52.75;46.25;27.50
72307;PMS5003;60257;42.638;23.376;2023-02-28T06:35:46;60.75;49.25;28.75
72307;PMS5003;60257;42.638;23.376;2023-02-28T06:38:12;53.00;44.50;29.00
72307;PMS5003;60257;42.638;23.376;2023-02-28T06:40:38;56.25;48.00;27.50
72307;PMS5003;60257;42.638;23.376;2023-02-28T06:43:03;54.25;43.50;26.75
72307;PMS5003;60257;42.638;23.376;2023-02-28T06:45:28;55.00;47.75;28.00
72307;PMS5003;60257;42.638;23.376;2023-02-28T06:47:54;46.50;42.25;22.25
72307;PMS5003;60257;42.638;23.376;2023-02-28T06:50:20;50.25;41.00;25.00
72307;PMS5003;60257;42.638;23.376;2023-02-28T06:52:46;46.00;40.25;18.25
72307;PMS5003;60257;42.638;23.376;2023-02-28T06:55:12;52.25;44.00;25.50
72307;PMS5003;60257;42.638;23.376;2023-02-28T06:57:38;45.00;39.50;25.75
72307;PMS5003;60257;42.638;23.376;2023-02-28T07:00:07;54.00;43.00;24.00
72307;PMS5003;60257;42.638;23.376;2023-02-28T07:02:34;53.25;44.00;29.25
72307;PMS5003;60257;42.638;23.376;2023-02-28T07:05:03;44.67;39.00;23.33
72307;PMS5003;60257;42.638;23.376;2023-02-28T07:07:30;37.67;34.00;23.00
72307;PMS5003;60257;42.638;23.376;2023-02-28T07:09:55;47.67;41.00;23.33
72307;PMS5003;60257;42.638;23.376;2023-02-28T07:12:21;45.67;41.00;24.00
72307;PMS5003;60257;42.638;23.376;2023-02-28T07:14:47;45.50;39.00;23.25
72307;PMS5003;60257;42.638;23.376;2023-02-28T07:17:12;66.75;53.00;34.00
72307;PMS5003;60257;42.638;23.376;2023-02-28T07:19:38;55.00;46.75;27.25
72307;PMS5003;60257;42.638;23.376;2023-02-28T07:22:04;55.50;43.00;25.75
72307;PMS5003;60257;42.638;23.376;2023-02-28T07:24:30;53.25;43.50;26.25
72307;PMS5003;60257;42.638;23.376;2023-02-28T07:26:55;46.00;40.50;24.00
72307;PMS5003;60257;42.638;23.376;2023-02-28T07:29:21;56.00;43.67;27.00
72307;PMS5003;60257;42.638;23.376;2023-02-28T07:31:47;44.50;38.50;24.75
72307;PMS5003;60257;42.638;23.376;2023-02-28T07:34:13;54.00;45.50;28.00
72307;PMS5003;60257;42.638;23.376;2023-02-28T07:36:39;54.25;43.75;27.75
72307;PMS5003;60257;42.638;23.376;2023-02-28T07:39:04;59.00;47.25;27.25
72307;PMS5003;60257;42.638;23.376;2023-02-28T07:41:30;51.33;43.67;26.67
72307;PMS5003;60257;42.638;23.376;2023-02-28T07:43:58;54.67;44.33;22.67
72307;PMS5003;60257;42.638;23.376;2023-02-28T07:46:24;53.00;41.33;24.00
72307;PMS5003;60257;42.638;23.376;2023-02-28T07:48:51;51.25;43.50;27.00
72307;PMS5003;60257;42.638;23.376;2023-02-28T07:51:17;45.00;39.00;21.00
72307;PMS5003;60257;42.638;23.376;2023-02-28T07:53:43;49.67;43.00;24.67
72307;PMS5003;60257;42.638;23.376;2023-02-28T07:56:09;41.67;37.67;21.67
72307;PMS5003;60257;42.638;23.376;2023-02-28T07:58:35;44.67;39.00;23.33
72307;PMS5003;60257;42.638;23.376;2023-02-28T08:01:05;54.00;45.00;26.00
72307;PMS5003;60257;42.638;23.376;2023-02-28T08:03:32;46.67;40.00;19.67
72307;PMS5003;60257;42.638;23.376;2023-02-28T08:05:57;53.33;46.67;27.00
72307;PMS5003;60257;42.638;23.376;2023-02-28T08:08:23;57.00;43.33;26.33
72307;PMS5003;60257;42.638;23.376;2023-02-28T08:10:48;53.33;43.00;26.00
72307;PMS5003;60257;42.638;23.376;2023-02-28T08:13:14;52.33;44.00;24.33
72307;PMS5003;60257;42.638;23.376;2023-02-28T08:15:41;51.33;44.00;26.00
72307;PMS5003;60257;42.638;23.376;2023-02-28T08:18:07;53.67;44.00;26.33
72307;PMS5003;60257;42.638;23.376;2023-02-28T08:20:33;44.00;38.00;19.00
72307;PMS5003;60257;42.638;23.376;2023-02-28T08:22:58;53.67;44.67;26.00
72307;PMS5003;60257;42.638;23.376;2023-02-28T08:25:24;55.00;41.67;24.67
72307;PMS5003;60257;42.638;23.376;2023-02-28T08:27:52;50.67;41.00;21.67
72307;PMS5003;60257;42.638;23.376;2023-02-28T08:30:18;54.33;43.67;24.33
72307;PMS5003;60257;42.638;23.376;2023-02-28T08:32:43;55.67;44.67;24.00
72307;PMS5003;60257;42.638;23.376;2023-02-28T08:35:09;42.67;36.00;18.33
72307;PMS5003;60257;42.638;23.376;2023-02-28T08:37:35;49.00;41.00;24.00
72307;PMS5003;60257;42.638;23.376;2023-02-28T08:40:01;36.00;30.67;16.33
72307;PMS5003;60257;42.638;23.376;2023-02-28T08:42:26;41.33;37.00;21.00
72307;PMS5003;60257;42.638;23.376;2023-02-28T08:44:52;34.67;31.67;17.00
72307;PMS5003;60257;42.638;23.376;2023-02-28T08:47:17;42.67;37.00;21.67
72307;PMS5003;60257;42.638;23.376;2023-02-28T08:49:43;34.67;30.67;17.33
72307;PMS5003;60257;42.638;23.376;2023-02-28T08:52:09;39.33;36.67;20.00
72307;PMS5003;60257;42.638;23.376;2023-02-28T08:54:35;39.33;34.67;19.00
72307;PMS5003;60257;42.638;23.376;2023-02-28T08:57:02;34.67;31.67;18.67
72307;PMS5003;60257;42.638;23.376;2023-02-28T08:59:28;44.67;35.00;21.00
72307;PMS5003;60257;42.638;23.376;2023-02-28T09:01:54;34.33;32.33;19.00
72307;PMS5003;60257;42.638;23.376;2023-02-28T09:04:20;41.00;34.67;19.00
72307;PMS5003;60257;42.638;23.376;2023-02-28T09:06:45;37.67;31.67;17.00
72307;PMS5003;60257;42.638;23.376;2023-02-28T09:09:11;36.00;34.67;19.00
72307;PMS5003;60257;42.638;23.376;2023-02-28T09:11:36;37.33;34.33;18.33
72307;PMS5003;60257;42.638;23.376;2023-02-28T09:14:02;35.67;34.00;16.67
72307;PMS5003;60257;42.638;23.376;2023-02-28T09:16:28;36.00;34.00;19.67
72307;PMS5003;60257;42.638;23.376;2023-02-28T09:18:54;38.00;35.67;21.67
72307;PMS5003;60257;42.638;23.376;2023-02-28T09:21:20;31.33;27.33;14.67
72307;PMS5003;60257;42.638;23.376;2023-02-28T09:23:46;35.33;33.00;14.33
72307;PMS5003;60257;42.638;23.376;2023-02-28T09:26:15;32.67;28.67;17.00
72307;PMS5003;60257;42.638;23.376;2023-02-28T09:28:59;27.33;25.67;13.33
72307;PMS5003;60257;42.638;23.376;2023-02-28T09:31:26;27.67;25.33;13.67
72307;PMS5003;60257;42.638;23.376;2023-02-28T09:33:54;40.33;34.33;21.00
72307;PMS5003;60257;42.638;23.376;2023-02-28T09:36:22;45.00;37.33;20.33
72307;PMS5003;60257;42.638;23.376;2023-02-28T09:38:49;41.00;31.33;18.33
72307;PMS5003;60257;42.638;23.376;2023-02-28T09:41:23;40.67;36.33;18.00
72307;PMS5003;60257;42.638;23.376;2023-02-28T09:43:56;36.00;33.67;18.33
72307;PMS5003;60257;42.638;23.376;2023-02-28T09:49:08;39.00;35.33;20.00
72307;PMS5003;60257;42.638;23.376;2023-02-28T09:51:51;38.00;33.67;19.33
72307;PMS5003;60257;42.638;23.376;2023-02-28T09:54:20;29.00;28.00;12.33
72307;PMS5003;60257;42.638;23.376;2023-02-28T09:56:51;24.67;20.67;12.00
72307;PMS5003;60257;42.638;23.376;2023-02-28T10:04:58;25.67;25.67;15.67
72307;PMS5003;60257;42.638;23.376;2023-02-28T10:10:32;28.67;25.33;12.00
72307;PMS5003;60257;42.638;23.376;2023-02-28T10:13:04;28.00;23.67;14.00
72307;PMS5003;60257;42.638;23.376;2023-02-28T10:15:38;34.67;29.67;15.00
72307;PMS5003;60257;42.638;23.376;2023-02-28T10:18:04;36.33;32.00;17.33
72307;PMS5003;60257;42.638;23.376;2023-02-28T10:20:37;39.67;34.00;16.00
72307;PMS5003;60257;42.638;23.376;2023-02-28T10:25:47;26.67;26.67;16.00
72307;PMS5003;60257;42.638;23.376;2023-02-28T10:28:19;38.67;36.00;19.67
72307;PMS5003;60257;42.638;23.376;2023-02-28T10:30:48;39.67;33.67;17.00
72307;PMS5003;60257;42.638;23.376;2023-02-28T10:33:23;34.33;28.67;15.67
72307;PMS5003;60257;42.638;23.376;2023-02-28T10:35:49;36.33;34.33;19.67
72307;PMS5003;60257;42.638;23.376;2023-02-28T10:38:17;39.33;32.33;18.00
72307;PMS5003;60257;42.638;23.376;2023-02-28T10:40:45;30.67;29.00;15.67
72307;PMS5003;60257;42.638;23.376;2023-02-28T10:45:40;34.33;31.67;18.00
72307;PMS5003;60257;42.638;23.376;2023-02-28T10:48:57;32.33;29.67;15.67
72307;PMS5003;60257;42.638;23.376;2023-02-28T10:51:26;35.33;29.33;16.00
72307;PMS5003;60257;42.638;23.376;2023-02-28T10:54:01;38.67;36.00;19.33
72307;PMS5003;60257;42.638;23.376;2023-02-28T10:56:28;27.33;23.67;14.67
72307;PMS5003;60257;42.638;23.376;2023-02-28T10:59:02;33.00;26.33;14.33
72307;PMS5003;60257;42.638;23.376;2023-02-28T11:01:48;24.00;22.33;10.67
72307;PMS5003;60257;42.638;23.376;2023-02-28T11:04:19;38.67;33.00;17.00
72307;PMS5003;60257;42.638;23.376;2023-02-28T11:06:47;34.67;32.00;17.67
72307;PMS5003;60257;42.638;23.376;2023-02-28T11:09:27;27.67;26.33;15.00
72307;PMS5003;60257;42.638;23.376;2023-02-28T11:11:56;40.33;33.33;19.33
72307;PMS5003;60257;42.638;23.376;2023-02-28T11:14:25;36.33;33.00;20.00
72307;PMS5003;60257;42.638;23.376;2023-02-28T11:16:54;39.00;33.67;16.67
72307;PMS5003;60257;42.638;23.376;2023-02-28T11:19:31;33.00;31.00;15.00
72307;PMS5003;60257;42.638;23.376;2023-02-28T11:22:11;26.00;23.67;7.67
72307;PMS5003;60257;42.638;23.376;2023-02-28T11:24:45;32.00;28.67;16.33
72307;PMS5003;60257;42.638;23.376;2023-02-28T11:30:34;38.67;33.33;20.00
72307;PMS5003;60257;42.638;23.376;2023-02-28T11:35:49;39.00;36.00;20.33
72307;PMS5003;60257;42.638;23.376;2023-02-28T11:38:15;42.33;35.33;16.00
72307;PMS5003;60257;42.638;23.376;2023-02-28T11:48:54;31.33;29.00;15.00
72307;PMS5003;60257;42.638;23.376;2023-02-28T11:54:35;34.00;30.67;17.00
72307;PMS5003;60257;42.638;23.376;2023-02-28T11:57:16;33.00;31.00;16.00
72307;PMS5003;60257;42.638;23.376;2023-02-28T12:05:43;36.00;32.67;16.33
72307;PMS5003;60257;42.638;23.376;2023-02-28T12:10:57;31.00;26.67;15.00
72307;PMS5003;60257;42.638;23.376;2023-02-28T12:26:46;28.33;25.67;13.00
72307;PMS5003;60257;42.638;23.376;2023-02-28T12:29:23;34.00;30.00;15.00
72307;PMS5003;60257;42.638;23.376;2023-02-28T12:31:50;24.67;24.67;11.00
72307;PMS5003;60257;42.638;23.376;2023-02-28T12:34:25;27.67;24.33;15.33
72307;PMS5003;60257;42.638;23.376;2023-02-28T12:36:56;34.67;32.67;20.67
72307;PMS5003;60257;42.638;23.376;2023-02-28T12:39:27;40.67;37.00;23.00
72307;PMS5003;60257;42.638;23.376;2023-02-28T12:42:13;31.67;29.67;16.33
72307;PMS5003;60257;42.638;23.376;2023-02-28T12:44:49;33.67;33.00;17.67
72307;PMS5003;60257;42.638;23.376;2023-02-28T12:47:27;34.00;31.67;20.67
72307;PMS5003;60257;42.638;23.376;2023-02-28T12:50:09;33.67;30.67;17.00
72307;PMS5003;60257;42.638;23.376;2023-02-28T12:55:11;38.67;33.33;17.67
72307;PMS5003;60257;42.638;23.376;2023-02-28T13:00:18;31.33;30.33;15.00
72307;PMS5003;60257;42.638;23.376;2023-02-28T13:11:22;34.33;33.00;17.00
72307;PMS5003;60257;42.638;23.376;2023-02-28T13:13:56;34.00;31.67;18.00
72307;PMS5003;60257;42.638;23.376;2023-02-28T13:16:24;30.00;29.00;16.67
72307;PMS5003;60257;42.638;23.376;2023-02-28T13:18:49;31.33;25.00;14.67
72307;PMS5003;60257;42.638;23.376;2023-02-28T13:21:26;25.00;23.33;12.67
72307;PMS5003;60257;42.638;23.376;2023-02-28T13:29:02;24.67;24.00;12.67
72307;PMS5003;60257;42.638;23.376;2023-02-28T13:34:33;29.00;29.00;14.00
72307;PMS5003;60257;42.638;23.376;2023-02-28T13:42:36;28.00;27.33;16.00
72307;PMS5003;60257;42.638;23.376;2023-02-28T13:48:02;27.00;24.33;11.33
72307;PMS5003;60257;42.638;23.376;2023-02-28T13:50:33;26.67;24.33;13.00
72307;PMS5003;60257;42.638;23.376;2023-02-28T14:06:51;20.33;18.33;5.67
72307;PMS5003;60257;42.638;23.376;2023-02-28T14:09:39;33.67;31.33;15.00
72307;PMS5003;60257;42.638;23.376;2023-02-28T14:15:27;34.67;29.67;18.00
72307;PMS5003;60257;42.638;23.376;2023-02-28T14:18:21;30.33;26.00;13.00
72307;PMS5003;60257;42.638;23.376;2023-02-28T14:20:52;34.67;30.67;17.67
72307;PMS5003;60257;42.638;23.376;2023-02-28T14:26:10;29.00;27.67;14.67
72307;PMS5003;60257;42.638;23.376;2023-02-28T14:29:05;34.33;30.33;17.67
72307;PMS5003;60257;42.638;23.376;2023-02-28T14:34:14;29.33;26.00;14.00
72307;PMS5003;60257;42.638;23.376;2023-02-28T14:37:01;32.00;25.00;16.00
72307;PMS5003;60257;42.638;23.376;2023-02-28T14:39:28;42.67;36.33;20.33
72307;PMS5003;60257;42.638;23.376;2023-02-28T14:41:58;28.00;27.67;15.67
72307;PMS5003;60257;42.638;23.376;2023-02-28T14:44:28;30.33;26.33;16.67
72307;PMS5003;60257;42.638;23.376;2023-02-28T14:46:56;36.33;30.67;17.00
72307;PMS5003;60257;42.638;23.376;2023-02-28T14:49:37;31.67;28.33;13.67
72307;PMS5003;60257;42.638;23.376;2023-02-28T14:52:17;34.33;32.00;16.67
72307;PMS5003;60257;42.638;23.376;2023-02-28T14:54:46;31.33;27.00;11.67
72307;PMS5003;60257;42.638;23.376;2023-02-28T14:57:30;27.33;27.00;12.00
72307;PMS5003;60257;42.638;23.376;2023-02-28T15:00:03;25.33;24.67;12.00
72307;PMS5003;60257;42.638;23.376;2023-02-28T15:02:37;31.00;28.00;15.67
72307;PMS5003;60257;42.638;23.376;2023-02-28T15:07:41;27.00;20.67;12.00
72307;PMS5003;60257;42.638;23.376;2023-02-28T15:10:09;28.00;28.00;14.67
72307;PMS5003;60257;42.638;23.376;2023-02-28T15:12:40;22.33;19.33;6.67
72307;PMS5003;60257;42.638;23.376;2023-02-28T15:15:14;29.00;23.67;12.67
72307;PMS5003;60257;42.638;23.376;2023-02-28T15:17:41;29.67;27.00;14.00
72307;PMS5003;60257;42.638;23.376;2023-02-28T15:20:14;24.67;23.00;12.00
72307;PMS5003;60257;42.638;23.376;2023-02-28T15:22:41;31.67;28.67;15.00
72307;PMS5003;60257;42.638;23.376;2023-02-28T15:25:09;23.33;21.00;11.00
72307;PMS5003;60257;42.638;23.376;2023-02-28T15:27:42;28.33;25.67;13.00
72307;PMS5003;60257;42.638;23.376;2023-02-28T15:30:15;28.33;26.00;16.33
72307;PMS5003;60257;42.638;23.376;2023-02-28T15:32:43;25.33;23.33;13.33
72307;PMS5003;60257;42.638;23.376;2023-02-28T15:37:54;33.67;27.33;15.33
72307;PMS5003;60257;42.638;23.376;2023-02-28T15:45:34;26.67;26.00;16.33
72307;PMS5003;60257;42.638;23.376;2023-02-28T15:48:09;30.67;30.00;16.00
72307;PMS5003;60257;42.638;23.376;2023-02-28T15:50:49;20.33;19.00;12.00
72307;PMS5003;60257;42.638;23.376;2023-02-28T15:53:19;22.67;21.00;11.00
72307;PMS5003;60257;42.638;23.376;2023-02-28T15:56:01;26.67;23.33;10.67
72307;PMS5003;60257;42.638;23.376;2023-02-28T15:58:29;24.33;21.33;11.00
72307;PMS5003;60257;42.638;23.376;2023-02-28T16:01:06;34.67;27.33;16.00
72307;PMS5003;60257;42.638;23.376;2023-02-28T16:03:46;27.33;22.33;12.67
72307;PMS5003;60257;42.638;23.376;2023-02-28T16:06:30;26.33;26.33;16.00
72307;PMS5003;60257;42.638;23.376;2023-02-28T16:08:57;23.33;21.67;14.00
72307;PMS5003;60257;42.638;23.376;2023-02-28T16:11:22;19.00;18.67;11.00
72307;PMS5003;60257;42.638;23.376;2023-02-28T16:13:48;25.67;23.00;14.67
72307;PMS5003;60257;42.638;23.376;2023-02-28T16:16:19;24.33;22.67;14.67
72307;PMS5003;60257;42.638;23.376;2023-02-28T16:18:47;24.67;23.67;15.00
72307;PMS5003;60257;42.638;23.376;2023-02-28T16:21:12;25.33;20.67;13.00
72307;PMS5003;60257;42.638;23.376;2023-02-28T16:23:38;32.67;28.33;15.00
72307;PMS5003;60257;42.638;23.376;2023-02-28T16:26:04;31.33;30.67;17.00
72307;PMS5003;60257;42.638;23.376;2023-02-28T16:28:32;25.00;23.00;8.67
72307;PMS5003;60257;42.638;23.376;2023-02-28T16:31:01;24.67;22.00;13.00